Time;durP1;ratioP1;P1;durP2;ratioP2;P2;SDS_P1;SDS_P2;PMS_P1;PMS_P2;Temp;Humidity;BMP_temperature;BMP_pressure;BME280_temperature;BME280_humidity;BME280_pressure;Samples;Min_cycle;Max_cycle;Signal;HPM_P1;HPM_P2
2021/10/24 00:01:56;;;;;;;9.13;5.50;;;5.20;99.90;;;;;;5093926;28;20208;-67
2021/10/24 00:04:23;;;;;;;8.23;4.93;;;5.30;99.90;;;;;;5093852;28;20200;-67
2021/10/24 00:06:49;;;;;;;5.93;4.63;;;5.30;99.90;;;;;;5093871;28;20281;-68
2021/10/24 00:09:16;;;;;;;8.53;4.70;;;5.20;99.90;;;;;;5093772;28;20217;-66
2021/10/24 00:11:43;;;;;;;7.80;5.17;;;5.20;99.90;;;;;;5093817;28;20687;-68
2021/10/24 00:14:09;;;;;;;8.93;5.97;;;5.30;99.90;;;;;;5093815;28;20208;-66
2021/10/24 00:16:37;;;;;;;8.20;4.97;;;5.30;99.90;;;;;;5093862;28;20581;-66
2021/10/24 00:19:04;;;;;;;7.50;5.10;;;5.30;99.90;;;;;;5093858;28;20196;-66
2021/10/24 00:21:31;;;;;;;13.80;8.13;;;5.30;99.90;;;;;;5093853;28;20228;-67
2021/10/24 00:23:58;;;;;;;16.80;9.80;;;5.40;99.90;;;;;;5094036;28;20227;-67
2021/10/24 00:26:25;;;;;;;11.13;7.30;;;5.30;99.90;;;;;;5093497;28;20265;-66
2021/10/24 00:28:52;;;;;;;7.97;5.63;;;5.30;99.90;;;;;;5092934;28;20243;-67
2021/10/24 00:31:18;;;;;;;9.90;5.73;;;5.20;99.90;;;;;;5093579;28;20224;-65
2021/10/24 00:33:46;;;;;;;9.43;5.60;;;5.10;99.90;;;;;;5093257;28;20253;-66
2021/10/24 00:36:13;;;;;;;8.37;4.93;;;4.90;99.90;;;;;;5093286;28;20208;-67
2021/10/24 00:38:40;;;;;;;12.10;6.30;;;4.90;99.90;;;;;;5093377;28;20209;-67
2021/10/24 00:41:07;;;;;;;7.27;5.13;;;4.80;99.90;;;;;;5093803;28;20239;-67
2021/10/24 00:43:33;;;;;;;7.73;5.40;;;4.90;99.90;;;;;;5093098;28;20234;-67
2021/10/24 00:46:00;;;;;;;10.77;5.83;;;4.80;99.90;;;;;;5093113;28;20215;-67
2021/10/24 00:48:27;;;;;;;11.20;6.10;;;4.80;99.90;;;;;;5092904;28;20208;-67
2021/10/24 00:50:55;;;;;;;10.10;6.53;;;4.80;99.90;;;;;;5092939;28;20696;-67
2021/10/24 00:53:22;;;;;;;12.97;6.80;;;4.70;99.90;;;;;;5093176;28;20204;-67
2021/10/24 00:55:49;;;;;;;12.23;7.50;;;4.70;99.90;;;;;;5092907;28;20204;-68
2021/10/24 00:58:17;;;;;;;11.67;7.50;;;4.70;99.90;;;;;;5092808;28;20208;-66
2021/10/24 01:00:44;;;;;;;9.33;5.87;;;4.60;99.90;;;;;;5093261;28;20324;-67
2021/10/24 01:03:12;;;;;;;9.70;6.43;;;4.50;99.90;;;;;;5092997;28;20215;-67
2021/10/24 01:05:39;;;;;;;10.97;6.20;;;4.40;99.90;;;;;;5092691;28;20209;-67
2021/10/24 01:08:09;;;;;;;9.60;6.40;;;4.30;99.90;;;;;;5093014;28;20212;-67
2021/10/24 01:10:37;;;;;;;11.13;5.97;;;4.30;99.90;;;;;;5093380;28;20240;-66
2021/10/24 01:13:04;;;;;;;12.10;6.60;;;4.30;99.90;;;;;;5092794;28;20714;-66
2021/10/24 01:15:31;;;;;;;9.73;6.13;;;4.30;99.90;;;;;;5092737;28;20208;-67
2021/10/24 01:17:58;;;;;;;12.17;6.57;;;4.40;99.90;;;;;;5092655;28;20302;-67
2021/10/24 01:20:27;;;;;;;11.27;6.53;;;4.40;99.90;;;;;;5092685;28;20696;-67
2021/10/24 01:22:55;;;;;;;9.87;5.53;;;4.50;99.90;;;;;;5092608;28;20257;-67
2021/10/24 01:25:23;;;;;;;9.50;6.10;;;4.50;99.90;;;;;;5092426;28;20204;-67
2021/10/24 01:27:51;;;;;;;14.67;6.73;;;4.50;99.90;;;;;;5092396;28;20212;-67
2021/10/24 01:30:19;;;;;;;12.80;7.03;;;4.50;99.90;;;;;;5091995;28;20236;-67
2021/10/24 01:32:46;;;;;;;8.73;5.67;;;4.50;99.90;;;;;;5092597;28;20217;-67
2021/10/24 01:35:12;;;;;;;12.93;6.90;;;4.40;99.90;;;;;;5092314;28;20204;-67
2021/10/24 01:37:41;;;;;;;10.13;6.53;;;4.40;99.90;;;;;;5092469;28;20200;-67
2021/10/24 01:40:11;;;;;;;12.43;5.90;;;4.30;99.90;;;;;;5091337;28;20243;-67
2021/10/24 01:42:50;;;;;;;10.77;5.60;;;4.30;99.90;;;;;;5092400;28;20231;-67
2021/10/24 01:45:19;;;;;;;10.37;6.10;;;4.20;99.90;;;;;;5093446;28;20217;-67
2021/10/24 01:47:46;;;;;;;12.37;7.47;;;4.20;99.90;;;;;;5093849;28;20620;-67
2021/10/24 01:50:12;;;;;;;12.83;7.77;;;4.10;99.90;;;;;;5092775;28;20235;-67
2021/10/24 01:52:44;;;;;;;12.47;6.63;;;4.10;99.90;;;;;;5092713;28;20605;-68
2021/10/24 01:55:13;;;;;;;9.87;6.60;;;4.00;99.90;;;;;;5091689;28;20295;-67
2021/10/24 01:57:43;;;;;;;8.70;5.40;;;4.00;99.90;;;;;;5092036;28;20204;-68
2021/10/24 02:00:12;;;;;;;11.33;5.97;;;4.00;99.90;;;;;;5091908;28;20254;-67
2021/10/24 02:02:39;;;;;;;8.43;5.00;;;3.90;99.90;;;;;;5091922;28;20287;-68
2021/10/24 02:05:07;;;;;;;10.43;5.43;;;3.90;99.90;;;;;;5091475;28;20676;-65
2021/10/24 02:07:34;;;;;;;14.23;5.97;;;3.90;99.90;;;;;;5091766;28;20204;-66
2021/10/24 02:10:01;;;;;;;9.87;6.00;;;3.90;99.90;;;;;;5091399;28;20236;-66
2021/10/24 02:12:29;;;;;;;9.97;5.27;;;4.00;99.90;;;;;;5091805;28;20207;-65
2021/10/24 02:14:56;;;;;;;6.80;4.57;;;4.00;99.90;;;;;;5091202;28;20691;-66
2021/10/24 02:17:22;;;;;;;7.87;5.23;;;4.00;99.90;;;;;;5091592;28;20903;-65
2021/10/24 02:19:49;;;;;;;8.77;5.60;;;4.00;99.90;;;;;;5091308;28;20225;-66
2021/10/24 02:22:16;;;;;;;12.57;5.33;;;4.00;99.90;;;;;;5091301;28;20208;-66
2021/10/24 02:24:43;;;;;;;10.10;5.03;;;4.00;99.90;;;;;;5091405;28;20204;-65
2021/10/24 02:27:09;;;;;;;8.13;5.30;;;3.90;99.90;;;;;;5091518;28;20204;-66
2021/10/24 02:29:37;;;;;;;9.50;4.93;;;3.90;99.90;;;;;;5091148;28;20766;-65
2021/10/24 02:32:05;;;;;;;7.20;4.80;;;3.90;99.90;;;;;;5091766;28;20212;-66
2021/10/24 02:34:32;;;;;;;8.20;4.83;;;3.90;99.90;;;;;;5091069;28;20230;-66
2021/10/24 02:36:58;;;;;;;10.03;4.70;;;3.90;99.90;;;;;;5091572;28;20677;-65
2021/10/24 02:39:25;;;;;;;8.77;4.70;;;3.80;99.90;;;;;;5091429;28;20200;-65
2021/10/24 02:41:52;;;;;;;7.97;4.67;;;3.80;99.90;;;;;;5091363;28;20619;-66
2021/10/24 02:44:19;;;;;;;6.83;4.87;;;3.70;99.90;;;;;;5091497;28;20204;-65
2021/10/24 02:46:47;;;;;;;9.97;4.97;;;3.70;99.90;;;;;;5091279;28;20747;-66
2021/10/24 02:49:14;;;;;;;7.07;4.40;;;3.70;99.90;;;;;;5091402;28;20607;-65
2021/10/24 02:51:41;;;;;;;9.87;4.90;;;3.60;99.90;;;;;;5093436;28;20200;-67
2021/10/24 02:54:08;;;;;;;8.47;4.77;;;3.50;99.90;;;;;;5095502;28;20212;-65
2021/10/24 02:56:34;;;;;;;9.57;5.50;;;3.50;99.90;;;;;;5095193;28;20624;-66
2021/10/24 02:59:01;;;;;;;7.00;4.80;;;3.40;99.90;;;;;;5094925;28;20729;-65
2021/10/24 03:01:28;;;;;;;9.27;4.60;;;3.30;99.90;;;;;;5095174;28;20234;-66
2021/10/24 03:03:56;;;;;;;8.90;4.70;;;3.30;99.90;;;;;;5094942;28;20208;-66
2021/10/24 03:06:23;;;;;;;7.63;5.30;;;3.30;99.90;;;;;;5095041;28;20237;-66
2021/10/24 03:08:50;;;;;;;6.70;4.57;;;3.20;99.90;;;;;;5095322;28;20211;-64
2021/10/24 03:11:17;;;;;;;8.67;4.40;;;3.10;99.90;;;;;;5094931;28;20224;-64
2021/10/24 03:13:43;;;;;;;9.03;5.53;;;3.00;99.90;;;;;;5095235;28;20205;-64
2021/10/24 03:16:10;;;;;;;13.57;5.90;;;3.00;99.90;;;;;;5095700;28;20570;-65
2021/10/24 03:18:37;;;;;;;8.17;4.67;;;2.90;99.90;;;;;;5095164;28;20204;-65
2021/10/24 03:21:05;;;;;;;14.93;4.73;;;2.90;99.90;;;;;;5094902;28;20224;-65
2021/10/24 03:23:32;;;;;;;6.60;5.00;;;2.90;99.90;;;;;;5095172;28;20204;-65
2021/10/24 03:25:59;;;;;;;7.37;4.43;;;2.90;99.90;;;;;;5094809;28;20257;-65
2021/10/24 03:28:26;;;;;;;6.70;4.43;;;2.90;99.90;;;;;;5094741;28;20212;-65
2021/10/24 03:30:55;;;;;;;6.33;4.70;;;2.90;99.90;;;;;;5094528;28;20281;-65
2021/10/24 03:33:22;;;;;;;8.00;4.77;;;3.00;99.90;;;;;;5094432;28;20640;-65
2021/10/24 03:35:48;;;;;;;8.03;4.93;;;3.00;99.90;;;;;;5094670;28;20204;-65
2021/10/24 03:38:16;;;;;;;6.60;5.40;;;3.00;99.90;;;;;;5094650;28;20207;-65
2021/10/24 03:40:43;;;;;;;7.67;4.83;;;3.00;99.90;;;;;;5094595;28;20239;-65
2021/10/24 03:43:10;;;;;;;6.70;5.00;;;3.00;99.90;;;;;;5094568;28;20215;-66
2021/10/24 03:45:37;;;;;;;5.13;3.90;;;3.00;99.90;;;;;;5094114;28;20205;-66
2021/10/24 03:48:03;;;;;;;7.93;5.47;;;3.00;99.90;;;;;;5094293;28;20204;-66
2021/10/24 03:50:30;;;;;;;5.77;4.50;;;2.90;99.90;;;;;;5094301;28;20235;-65
2021/10/24 03:52:57;;;;;;;7.07;4.13;;;2.90;99.90;;;;;;5094529;28;20204;-65
2021/10/24 03:55:25;;;;;;;5.43;4.40;;;2.80;99.90;;;;;;5094116;28;20208;-66
2021/10/24 03:57:51;;;;;;;8.10;4.37;;;2.80;99.90;;;;;;5093967;28;20699;-65
2021/10/24 04:00:18;;;;;;;8.53;4.30;;;2.80;99.90;;;;;;5094181;28;20232;-66
2021/10/24 04:02:53;;;;;;;8.00;4.60;;;2.70;99.90;;;;;;5093553;28;20208;-66
2021/10/24 04:05:20;;;;;;;4.83;4.20;;;2.70;99.90;;;;;;5094400;28;20234;-65
2021/10/24 04:07:48;;;;;;;8.50;3.80;;;2.60;99.90;;;;;;5094937;28;20200;-65
2021/10/24 04:10:15;;;;;;;6.67;3.97;;;2.60;99.90;;;;;;5094412;28;20224;-65
2021/10/24 04:12:43;;;;;;;9.73;4.20;;;2.70;99.90;;;;;;5096888;28;20215;-65
2021/10/24 04:15:10;;;;;;;9.37;4.80;;;2.70;99.90;;;;;;5097321;28;20211;-65
2021/10/24 04:17:37;;;;;;;9.60;4.43;;;2.70;99.90;;;;;;5096823;28;20217;-65
2021/10/24 04:20:06;;;;;;;7.73;3.97;;;2.70;99.90;;;;;;5096643;28;20227;-65
2021/10/24 04:22:33;;;;;;;8.13;4.73;;;2.60;99.90;;;;;;5097426;28;20216;-65
2021/10/24 04:24:59;;;;;;;10.10;4.17;;;2.60;99.90;;;;;;5096933;28;20269;-65
2021/10/24 04:27:26;;;;;;;8.50;4.30;;;2.60;99.90;;;;;;5096015;28;20204;-66
2021/10/24 04:29:54;;;;;;;6.23;4.03;;;2.50;99.90;;;;;;5095026;28;20643;-66
2021/10/24 04:32:21;;;;;;;6.17;4.40;;;2.60;99.90;;;;;;5093989;28;20207;-66
2021/10/24 04:34:48;;;;;;;10.60;5.17;;;2.50;99.90;;;;;;5093172;28;20207;-66
2021/10/24 04:37:14;;;;;;;6.03;3.80;;;2.40;99.90;;;;;;5093318;28;20212;-66
2021/10/24 04:39:41;;;;;;;7.00;4.37;;;2.30;99.90;;;;;;5093102;28;20289;-66
2021/10/24 04:42:08;;;;;;;8.37;4.20;;;2.30;99.90;;;;;;5093112;28;20208;-65
2021/10/24 04:44:34;;;;;;;6.50;4.17;;;2.20;99.90;;;;;;5093158;28;20204;-66
2021/10/24 04:47:03;;;;;;;7.20;3.90;;;2.10;99.90;;;;;;5092885;28;20702;-65
2021/10/24 04:49:30;;;;;;;5.03;3.50;;;2.10;99.90;;;;;;5092701;28;20257;-66
2021/10/24 04:51:57;;;;;;;6.33;3.90;;;2.10;99.90;;;;;;5092927;28;20204;-66
2021/10/24 04:54:24;;;;;;;6.83;4.17;;;2.00;99.90;;;;;;5093004;28;20208;-66
2021/10/24 04:56:51;;;;;;;4.97;3.57;;;2.10;99.90;;;;;;5093003;28;20240;-65
2021/10/24 04:59:18;;;;;;;7.27;4.13;;;2.10;99.90;;;;;;5092726;28;20307;-66
2021/10/24 05:01:45;;;;;;;7.63;4.00;;;2.10;99.90;;;;;;5093017;28;20204;-66
2021/10/24 05:04:13;;;;;;;7.10;3.77;;;2.00;99.90;;;;;;5093100;28;20864;-66
2021/10/24 05:06:40;;;;;;;7.30;3.83;;;1.90;99.90;;;;;;5092770;28;20220;-68
2021/10/24 05:09:07;;;;;;;5.53;3.43;;;1.90;99.90;;;;;;5093108;28;20205;-66
2021/10/24 05:11:34;;;;;;;4.77;3.27;;;1.90;99.90;;;;;;5092496;28;20232;-66
2021/10/24 05:14:03;;;;;;;10.50;4.00;;;1.90;99.90;;;;;;5092747;28;20204;-66
2021/10/24 05:16:29;;;;;;;7.47;3.90;;;2.00;99.90;;;;;;5092916;28;20205;-66
2021/10/24 05:18:56;;;;;;;7.70;3.97;;;1.90;99.90;;;;;;5092430;28;20204;-66
2021/10/24 05:21:24;;;;;;;9.87;3.73;;;1.90;99.90;;;;;;5092395;28;20227;-66
2021/10/24 05:23:51;;;;;;;5.90;3.47;;;1.90;99.90;;;;;;5092118;28;20230;-66
2021/10/24 05:26:18;;;;;;;6.53;3.50;;;1.90;99.90;;;;;;5092484;28;20581;-67
2021/10/24 05:28:44;;;;;;;5.87;3.47;;;1.90;99.90;;;;;;5092163;28;20230;-66
2021/10/24 05:31:11;;;;;;;5.47;3.67;;;1.90;99.90;;;;;;5092013;28;20232;-67
2021/10/24 05:33:38;;;;;;;5.17;3.10;;;1.90;99.90;;;;;;5092020;28;20258;-66
2021/10/24 05:36:06;;;;;;;8.27;3.83;;;2.00;99.90;;;;;;5092454;28;20579;-66
2021/10/24 05:38:34;;;;;;;7.43;4.27;;;2.00;99.90;;;;;;5092646;28;20211;-66
2021/10/24 05:41:01;;;;;;;5.97;3.50;;;2.00;99.90;;;;;;5092418;28;20271;-66
2021/10/24 05:43:28;;;;;;;6.43;3.60;;;2.00;99.90;;;;;;5092517;28;20209;-67
2021/10/24 05:45:54;;;;;;;6.60;3.60;;;2.00;99.90;;;;;;5092524;28;20208;-66
2021/10/24 05:48:21;;;;;;;5.97;3.80;;;2.10;99.90;;;;;;5091845;28;20261;-67
2021/10/24 05:50:49;;;;;;;7.03;3.80;;;2.10;99.90;;;;;;5091705;28;20691;-66
2021/10/24 05:53:15;;;;;;;6.60;3.83;;;2.20;99.90;;;;;;5091985;28;20571;-66
2021/10/24 05:55:45;;;;;;;6.20;4.27;;;2.20;99.90;;;;;;5092300;28;20419;-66
2021/10/24 05:58:12;;;;;;;8.60;4.30;;;2.20;99.90;;;;;;5091561;28;20242;-66
2021/10/24 06:00:39;;;;;;;5.93;3.77;;;2.30;99.90;;;;;;5091902;28;20228;-66
2021/10/24 06:03:06;;;;;;;7.37;4.17;;;2.30;99.90;;;;;;5093351;28;20208;-66
2021/10/24 06:05:33;;;;;;;7.63;4.33;;;2.40;99.90;;;;;;5092507;28;20211;-66
2021/10/24 06:08:01;;;;;;;6.67;4.80;;;2.40;99.90;;;;;;5093096;28;20231;-66
2021/10/24 06:10:31;;;;;;;7.70;5.97;;;2.40;99.90;;;;;;5092432;28;20235;-66
2021/10/24 06:13:00;;;;;;;8.53;6.53;;;2.40;99.90;;;;;;5092247;28;20588;-66
2021/10/24 06:15:26;;;;;;;7.37;5.70;;;2.50;99.90;;;;;;5092628;28;20204;-66
2021/10/24 06:17:53;;;;;;;6.47;5.20;;;2.60;99.90;;;;;;5092458;28;20208;-66
2021/10/24 06:20:21;;;;;;;9.80;5.47;;;2.60;99.90;;;;;;5092732;28;20224;-66
2021/10/24 06:22:49;;;;;;;8.07;5.73;;;2.60;99.90;;;;;;5092986;28;20208;-66
2021/10/24 06:25:17;;;;;;;8.60;5.00;;;2.70;99.90;;;;;;5091119;28;20208;-65
2021/10/24 06:27:45;;;;;;;6.43;4.80;;;2.80;99.90;;;;;;5091598;28;20216;-65
2021/10/24 06:30:17;;;;;;;9.37;5.27;;;2.70;99.90;;;;;;5091331;28;20270;-65
2021/10/24 06:32:44;;;;;;;6.07;4.40;;;2.70;99.90;;;;;;5091504;28;20265;-66
2021/10/24 06:35:11;;;;;;;7.53;5.10;;;2.80;99.90;;;;;;5091367;28;20223;-66
2021/10/24 06:37:38;;;;;;;9.77;5.00;;;2.80;99.90;;;;;;5091373;28;20215;-66
2021/10/24 06:40:07;;;;;;;5.50;4.33;;;2.90;99.90;;;;;;5091991;28;20272;-67
2021/10/24 06:42:34;;;;;;;7.97;4.80;;;3.20;99.90;;;;;;5091711;28;20215;-67
2021/10/24 06:45:00;;;;;;;5.77;4.30;;;3.70;99.90;;;;;;5091027;28;20208;-68
2021/10/24 06:47:29;;;;;;;6.57;4.40;;;4.50;99.90;;;;;;5091359;28;20204;-68
2021/10/24 06:49:55;;;;;;;8.23;4.80;;;5.40;99.90;;;;;;5091279;28;20311;-68
2021/10/24 06:52:22;;;;;;;7.33;5.43;;;6.30;99.90;;;;;;5091301;28;20220;-68
2021/10/24 06:54:49;;;;;;;8.07;5.53;;;7.30;99.90;;;;;;5090982;28;20207;-68
2021/10/24 06:57:15;;;;;;;8.57;5.03;;;8.20;99.90;;;;;;5091177;28;20311;-68
2021/10/24 06:59:43;;;;;;;8.07;4.70;;;8.80;99.90;;;;;;5091307;28;20228;-68
2021/10/24 07:02:09;;;;;;;6.70;4.67;;;9.00;99.90;;;;;;5091162;28;20292;-68
2021/10/24 07:04:38;;;;;;;6.13;3.90;;;8.70;99.90;;;;;;5091354;28;20205;-68
2021/10/24 07:07:05;;;;;;;6.40;4.27;;;8.20;99.90;;;;;;5092101;28;20211;-68
2021/10/24 07:09:32;;;;;;;6.80;4.10;;;7.70;99.90;;;;;;5090938;28;20668;-68
2021/10/24 07:11:59;;;;;;;6.87;3.97;;;7.20;99.90;;;;;;5090702;28;20220;-68
2021/10/24 07:14:27;;;;;;;6.87;4.70;;;6.80;99.90;;;;;;5091228;28;20304;-67
2021/10/24 07:16:53;;;;;;;5.20;3.63;;;6.50;99.90;;;;;;5091180;28;20208;-68
2021/10/24 07:19:20;;;;;;;10.20;5.33;;;6.30;99.90;;;;;;5090888;28;20212;-69
2021/10/24 07:21:48;;;;;;;6.37;3.63;;;6.10;99.90;;;;;;5092167;28;20211;-67
2021/10/24 07:24:14;;;;;;;6.70;4.00;;;5.90;99.90;;;;;;5092108;28;20204;-67
2021/10/24 07:26:41;;;;;;;6.30;4.20;;;5.70;99.90;;;;;;5091992;28;20204;-67
2021/10/24 07:29:08;;;;;;;6.53;4.33;;;5.60;99.90;;;;;;5091953;28;20204;-68
2021/10/24 07:31:35;;;;;;;6.90;4.50;;;5.50;99.90;;;;;;5091876;28;20224;-66
2021/10/24 07:34:01;;;;;;;6.47;4.53;;;5.50;99.90;;;;;;5091731;28;20249;-67
2021/10/24 07:36:28;;;;;;;8.07;4.53;;;5.50;99.90;;;;;;5091482;28;20238;-67
2021/10/24 07:38:57;;;;;;;8.80;4.83;;;5.60;99.90;;;;;;5093570;28;20211;-67
2021/10/24 07:41:24;;;;;;;7.50;4.77;;;5.70;99.90;;;;;;5094491;28;20603;-67
2021/10/24 07:43:51;;;;;;;8.60;5.03;;;5.80;99.90;;;;;;5094819;28;20215;-67
2021/10/24 07:46:17;;;;;;;12.20;6.30;;;5.90;99.90;;;;;;5094584;28;20211;-67
2021/10/24 07:48:44;;;;;;;7.50;4.70;;;6.00;99.90;;;;;;5094827;28;20212;-67
2021/10/24 07:51:10;;;;;;;6.20;4.07;;;6.10;99.90;;;;;;5095087;28;20239;-67
2021/10/24 07:53:37;;;;;;;6.30;4.63;;;6.20;99.90;;;;;;5094399;28;20234;-67
2021/10/24 07:56:05;;;;;;;6.17;4.10;;;6.30;99.90;;;;;;5095007;28;20729;-67
2021/10/24 07:58:33;;;;;;;10.97;5.07;;;6.40;99.90;;;;;;5094988;28;20204;-65
2021/10/24 08:01:00;;;;;;;7.23;4.30;;;6.40;99.90;;;;;;5094808;28;20220;-63
2021/10/24 08:03:27;;;;;;;7.47;4.70;;;6.60;99.90;;;;;;5094681;28;20204;-63
2021/10/24 08:05:54;;;;;;;9.60;4.77;;;6.80;99.90;;;;;;5094680;28;20200;-63
2021/10/24 08:08:20;;;;;;;7.93;5.90;;;7.00;99.90;;;;;;5094201;28;20253;-63
2021/10/24 08:10:47;;;;;;;9.67;4.47;;;7.20;99.90;;;;;;5094602;28;20288;-63
2021/10/24 08:13:16;;;;;;;8.77;6.17;;;7.40;99.90;;;;;;5093932;28;20212;-63
2021/10/24 08:15:43;;;;;;;8.40;4.90;;;7.50;99.90;;;;;;5093932;28;20454;-63
2021/10/24 08:18:09;;;;;;;7.27;4.47;;;7.60;99.90;;;;;;5093929;28;20204;-63
2021/10/24 08:20:36;;;;;;;7.13;4.63;;;7.80;99.90;;;;;;5093824;28;20224;-64
2021/10/24 08:23:03;;;;;;;7.23;3.93;;;7.90;99.90;;;;;;5093645;28;20258;-63
2021/10/24 08:25:30;;;;;;;6.43;3.90;;;8.10;99.90;;;;;;5093563;28;20208;-63
2021/10/24 08:27:59;;;;;;;5.57;4.33;;;8.20;99.90;;;;;;5093479;28;20741;-64
2021/10/24 08:30:27;;;;;;;7.97;4.27;;;8.30;99.90;;;;;;5093510;28;20228;-64
2021/10/24 08:32:55;;;;;;;6.73;4.43;;;8.40;99.90;;;;;;5093450;28;20281;-64
2021/10/24 08:35:22;;;;;;;8.57;4.20;;;8.60;99.90;;;;;;5093130;28;20676;-64
2021/10/24 08:37:49;;;;;;;7.47;4.20;;;8.70;99.90;;;;;;5093833;28;20239;-64
2021/10/24 08:40:16;;;;;;;6.77;4.30;;;8.90;99.90;;;;;;5093501;28;20325;-65
2021/10/24 08:42:46;;;;;;;8.20;4.13;;;9.10;99.90;;;;;;5093719;28;20291;-65
2021/10/24 08:45:13;;;;;;;11.13;4.60;;;9.20;99.90;;;;;;5093484;28;20204;-65
2021/10/24 08:47:42;;;;;;;7.27;4.20;;;9.40;99.90;;;;;;5093081;28;20211;-65
2021/10/24 08:50:11;;;;;;;7.50;3.93;;;9.50;99.90;;;;;;5093265;28;20224;-65
2021/10/24 08:52:39;;;;;;;6.83;3.77;;;9.60;99.90;;;;;;5093487;28;20315;-65
2021/10/24 08:55:07;;;;;;;5.67;3.63;;;9.60;99.90;;;;;;5093454;28;20238;-65
2021/10/24 08:57:34;;;;;;;5.57;3.00;;;9.70;99.90;;;;;;5093362;28;20204;-65
2021/10/24 09:00:02;;;;;;;6.70;3.10;;;9.80;99.90;;;;;;5092864;28;20765;-65
2021/10/24 09:02:56;;;;;;;6.13;4.20;;;9.90;99.90;;;;;;5092789;28;20582;-65
2021/10/24 09:05:32;;;;;;;4.43;3.03;;;10.10;99.90;;;;;;5093022;28;20215;-65
2021/10/24 09:07:59;;;;;;;4.67;3.10;;;10.20;99.90;;;;;;5092654;28;20208;-64
2021/10/24 09:10:41;;;;;;;6.00;2.80;;;10.40;99.90;;;;;;5092863;28;20256;-67
2021/10/24 09:13:10;;;;;;;6.07;3.43;;;10.50;99.90;;;;;;5093136;28;20227;-64
2021/10/24 09:15:54;;;;;;;4.80;3.03;;;10.50;99.90;;;;;;5092650;28;20207;-65
2021/10/24 09:18:29;;;;;;;4.70;3.03;;;10.60;99.90;;;;;;5092747;28;20208;-64
2021/10/24 09:20:56;;;;;;;5.43;2.60;;;10.80;99.90;;;;;;5092897;28;20231;-65
2021/10/24 09:23:23;;;;;;;3.90;2.93;;;10.90;99.90;;;;;;5092189;28;20219;-64
2021/10/24 09:25:53;;;;;;;5.73;3.13;;;11.00;99.90;;;;;;5092870;28;20201;-64
2021/10/24 09:28:21;;;;;;;4.87;2.80;;;11.10;99.90;;;;;;5093846;28;20238;-64
2021/10/24 09:30:58;;;;;;;6.07;2.80;;;11.20;99.90;;;;;;5092599;28;20224;-65
2021/10/24 09:33:26;;;;;;;5.47;3.10;;;11.30;99.90;;;;;;5092582;28;20200;-64
2021/10/24 09:35:53;;;;;;;4.57;2.80;;;11.30;99.90;;;;;;5092344;28;20208;-64
2021/10/24 09:38:21;;;;;;;4.97;2.80;;;11.40;99.90;;;;;;5092311;28;20219;-64
2021/10/24 09:40:54;;;;;;;3.80;2.87;;;11.40;99.90;;;;;;5092034;28;20232;-64
2021/10/24 09:43:23;;;;;;;7.33;2.60;;;11.50;99.90;;;;;;5092242;28;20207;-65
2021/10/24 09:46:10;;;;;;;4.53;2.70;;;11.60;99.90;;;;;;5092409;28;20208;-64
2021/10/24 09:48:41;;;;;;;4.20;2.77;;;11.90;99.90;;;;;;5092305;28;20206;-64
2021/10/24 09:51:11;;;;;;;4.77;2.57;;;12.10;99.90;;;;;;5092294;28;20246;-65
2021/10/24 09:53:39;;;;;;;5.23;2.20;;;12.20;99.90;;;;;;5091960;28;20682;-66
2021/10/24 09:56:08;;;;;;;2.30;2.10;;;12.30;99.90;;;;;;5092138;28;20214;-65
2021/10/24 09:58:38;;;;;;;4.73;2.77;;;12.30;99.90;;;;;;5091865;28;20622;-65
2021/10/24 10:01:06;;;;;;;4.03;2.20;;;12.50;99.90;;;;;;5091394;28;20224;-66
2021/10/24 10:03:33;;;;;;;5.40;2.33;;;12.60;99.90;;;;;;5091766;28;20721;-65
2021/10/24 10:06:02;;;;;;;3.70;2.37;;;12.80;99.90;;;;;;5092170;28;20207;-65
2021/10/24 10:08:28;;;;;;;4.73;2.60;;;12.90;99.90;;;;;;5092148;28;20227;-65
2021/10/24 10:11:02;;;;;;;2.57;2.10;;;13.10;99.90;;;;;;5092166;28;20519;-65
2021/10/24 10:13:30;;;;;;;2.80;2.40;;;13.30;99.90;;;;;;5091844;28;20231;-64
2021/10/24 10:16:04;;;;;;;4.63;2.53;;;13.40;99.90;;;;;;5092089;28;20204;-65
2021/10/24 10:18:30;;;;;;;2.53;2.00;;;13.50;99.90;;;;;;5091632;28;20204;-65
2021/10/24 10:21:03;;;;;;;3.57;2.50;;;13.60;99.90;;;;;;5091653;28;20293;-65
2021/10/24 10:23:39;;;;;;;3.77;2.50;;;13.70;99.90;;;;;;5091491;28;20200;-65
2021/10/24 10:26:31;;;;;;;3.33;2.47;;;13.70;99.90;;;;;;5091923;28;20207;-65
2021/10/24 10:28:57;;;;;;;4.33;1.83;;;13.70;99.90;;;;;;5092013;28;20210;-64
2021/10/24 10:31:24;;;;;;;4.73;2.10;;;13.80;99.90;;;;;;5091655;28;20344;-65
2021/10/24 10:33:58;;;;;;;2.80;2.30;;;13.90;99.90;;;;;;5092037;28;20652;-64
2021/10/24 10:37:00;;;;;;;3.40;2.20;;;14.10;99.90;;;;;;5091700;28;20273;-65
2021/10/24 10:39:44;;;;;;;2.77;1.83;;;14.30;99.90;;;;;;5091337;28;20256;-64
2021/10/24 10:42:52;;;;;;;4.27;2.20;;;14.20;99.90;;;;;;5091705;28;20204;-65
2021/10/24 10:45:27;;;;;;;9.77;5.53;;;14.40;99.90;;;;;;5091378;28;20594;-65
2021/10/24 10:47:56;;;;;;;4.57;2.43;;;14.40;99.90;;;;;;5091535;28;20589;-65
2021/10/24 10:50:48;;;;;;;6.03;2.50;;;14.60;99.90;;;;;;5091874;28;20220;-65
2021/10/24 10:54:03;;;;;;;2.63;1.93;;;14.70;99.90;;;;;;5091743;28;20224;-67
2021/10/24 10:56:52;;;;;;;3.63;2.10;;;14.90;99.90;;;;;;5091815;28;20574;-65
2021/10/24 10:59:31;;;;;;;4.77;2.40;;;15.20;99.90;;;;;;5091549;28;20198;-66
2021/10/24 11:02:19;;;;;;;4.70;2.37;;;15.30;99.90;;;;;;5091679;28;20204;-66
2021/10/24 11:04:48;;;;;;;2.90;1.80;;;15.30;99.90;;;;;;5091763;28;20240;-66
2021/10/24 11:07:34;;;;;;;5.37;2.83;;;15.30;99.90;;;;;;5092921;28;20239;-66
2021/10/24 11:10:00;;;;;;;4.87;2.77;;;15.50;99.50;;;;;;5092919;28;20232;-65
2021/10/24 11:12:51;;;;;;;4.67;1.83;;;15.40;99.40;;;;;;5095791;28;20224;-66
2021/10/24 11:15:31;;;;;;;2.37;1.80;;;15.50;99.10;;;;;;5095545;28;20751;-66
2021/10/24 11:18:02;;;;;;;3.70;2.20;;;15.60;98.80;;;;;;5095467;28;20253;-66
2021/10/24 11:20:40;;;;;;;2.30;1.80;;;15.70;99.00;;;;;;5095172;28;20223;-66
2021/10/24 11:23:12;;;;;;;3.07;2.33;;;15.80;98.80;;;;;;5095310;28;20730;-64
2021/10/24 11:25:40;;;;;;;2.90;2.20;;;15.90;98.50;;;;;;5094762;28;20577;-66
2021/10/24 11:28:12;;;;;;;4.47;1.80;;;16.00;98.20;;;;;;5094726;28;20212;-67
2021/10/24 11:30:40;;;;;;;3.00;2.07;;;16.10;98.00;;;;;;5094887;28;20599;-66
2021/10/24 11:33:07;;;;;;;4.17;2.07;;;16.10;98.40;;;;;;5094910;28;20224;-66
2021/10/24 11:35:36;;;;;;;3.80;1.97;;;16.20;98.00;;;;;;5094745;28;20261;-65
2021/10/24 11:38:07;;;;;;;3.30;1.73;;;16.40;97.60;;;;;;5094910;28;20580;-67
2021/10/24 11:40:36;;;;;;;4.03;2.17;;;16.30;97.20;;;;;;5094858;28;20236;-66
2021/10/24 11:43:07;;;;;;;2.70;1.83;;;16.40;97.20;;;;;;5094970;28;20197;-65
2021/10/24 11:45:37;;;;;;;4.30;1.70;;;16.30;97.20;;;;;;5094767;28;20676;-65
2021/10/24 11:48:07;;;;;;;3.47;2.00;;;16.30;97.10;;;;;;5095245;28;20215;-65
2021/10/24 11:50:52;;;;;;;5.23;2.00;;;16.30;97.30;;;;;;5095118;28;20256;-65
2021/10/24 11:53:32;;;;;;;3.60;1.80;;;16.40;97.00;;;;;;5095901;28;20234;-65
2021/10/24 11:56:01;;;;;;;3.30;1.90;;;16.40;95.90;;;;;;5096359;28;20509;-65
2021/10/24 11:58:38;;;;;;;4.03;1.97;;;16.40;96.40;;;;;;5098857;28;20629;-66
2021/10/24 12:01:09;;;;;;;2.23;1.93;;;16.50;96.40;;;;;;5093966;28;20281;-66
2021/10/24 12:03:39;;;;;;;2.97;1.80;;;16.70;96.00;;;;;;5094005;28;20204;-66
2021/10/24 12:06:06;;;;;;;4.20;2.00;;;16.80;95.60;;;;;;5093914;28;20668;-65
2021/10/24 12:08:44;;;;;;;4.60;1.97;;;16.90;95.30;;;;;;5094124;28;20615;-65
2021/10/24 12:11:14;;;;;;;3.23;1.80;;;17.00;95.80;;;;;;5093466;28;20641;-65
2021/10/24 12:13:42;;;;;;;3.07;1.77;;;17.00;95.50;;;;;;5093546;28;20323;-65
2021/10/24 12:19:31;;;;;;;2.20;1.57;;;17.20;95.50;;;;;;5088691;28;20971;-65
2021/10/24 12:22:06;;;;;;;2.90;1.83;;;17.30;94.60;;;;;;5067579;28;20296;-66
2021/10/24 12:24:43;;;;;;;4.07;1.73;;;17.40;93.90;;;;;;5068159;28;20212;-66
2021/10/24 12:27:19;;;;;;;4.10;2.40;;;17.30;94.10;;;;;;5068716;28;20235;-66
2021/10/24 12:30:01;;;;;;;4.13;2.03;;;17.40;94.50;;;;;;5069734;28;20232;-65
2021/10/24 12:32:29;;;;;;;4.57;3.07;;;17.30;94.80;;;;;;5074450;22;20261;-59
2021/10/24 12:35:07;;;;;;;3.87;2.37;;;17.20;94.90;;;;;;5047989;28;20267;-58
2021/10/24 12:37:34;;;;;;;3.00;1.80;;;17.10;93.80;;;;;;5048180;28;20279;-59
2021/10/24 12:40:19;;;;;;;7.87;6.73;;;17.20;93.40;;;;;;5048384;28;20361;-59
2021/10/24 12:43:01;;;;;;;8.07;3.70;;;17.40;93.80;;;;;;5028182;28;20202;-59
2021/10/24 12:45:28;;;;;;;5.77;2.90;;;17.50;93.30;;;;;;5028183;28;20241;-59
2021/10/24 12:47:56;;;;;;;4.17;2.20;;;17.50;93.30;;;;;;5028062;28;20293;-58
2021/10/24 12:50:35;;;;;;;3.80;2.20;;;17.50;93.50;;;;;;5028311;28;20206;-59
2021/10/24 12:53:05;;;;;;;2.97;1.80;;;17.60;91.80;;;;;;5030065;28;20206;-59
2021/10/24 12:55:33;;;;;;;7.40;5.17;;;17.60;92.40;;;;;;5029680;28;20487;-59
2021/10/24 12:58:00;;;;;;;5.67;3.13;;;17.70;92.60;;;;;;5027681;28;20223;-59
2021/10/24 13:00:28;;;;;;;5.33;1.80;;;17.80;93.00;;;;;;5027847;28;20202;-59
2021/10/24 13:02:54;;;;;;;4.27;1.90;;;17.90;93.00;;;;;;5027914;28;20209;-58
2021/10/24 13:05:21;;;;;;;3.60;1.70;;;17.90;92.00;;;;;;5028210;28;20256;-59
2021/10/24 13:07:50;;;;;;;4.03;2.23;;;17.80;91.80;;;;;;5027459;28;20208;-59